createdAt,value
2018-10-04T00:00:34.181Z,85.10
2018-10-04T00:03:02.525Z,85.10
2018-10-04T00:05:30.778Z,85.10
2018-10-04T00:08:15.619Z,85.20
2018-10-04T00:10:43.823Z,85.30
2018-10-04T00:13:12.059Z,85.30
2018-10-04T00:15:40.369Z,85.40
2018-10-04T00:18:08.606Z,85.20
2018-10-04T00:20:36.832Z,85.20
2018-10-04T00:23:05.079Z,85.20
2018-10-04T00:25:33.303Z,85.20
2018-10-04T00:28:01.524Z,85.20
2018-10-04T00:30:29.750Z,85.20
2018-10-04T00:33:02.166Z,85.30
2018-10-04T00:35:30.361Z,85.30
2018-10-04T00:37:58.598Z,85.40
2018-10-04T00:40:26.853Z,85.50
2018-10-04T00:42:55.053Z,85.60
2018-10-04T00:45:23.678Z,85.60
2018-10-04T00:47:52.054Z,85.60
2018-10-04T00:50:20.257Z,85.70
2018-10-04T00:52:48.454Z,85.70
2018-10-04T00:55:16.722Z,85.60
2018-10-04T00:57:44.928Z,85.60
2018-10-04T01:00:13.152Z,85.60
2018-10-04T01:02:43.511Z,85.60
2018-10-04T01:05:11.865Z,85.60
2018-10-04T01:07:41.418Z,85.50
2018-10-04T01:10:10.625Z,85.50
2018-10-04T01:12:38.806Z,85.60
2018-10-04T01:15:07.144Z,85.60
2018-10-04T01:17:35.369Z,85.70
2018-10-04T01:20:03.885Z,85.70
2018-10-04T01:22:32.089Z,86.30
2018-10-04T01:25:00.304Z,85.60
2018-10-04T01:27:28.524Z,85.60
2018-10-04T01:29:56.718Z,85.70
2018-10-04T01:32:24.950Z,85.80
2018-10-04T01:34:53.165Z,85.80
2018-10-04T01:37:21.447Z,85.80
2018-10-04T01:39:49.659Z,85.70
2018-10-04T01:42:17.958Z,85.60
2018-10-04T01:44:46.220Z,85.60
2018-10-04T01:47:14.451Z,85.70
2018-10-04T01:49:43.061Z,85.70
2018-10-04T01:52:11.281Z,85.70
2018-10-04T01:54:40.507Z,85.60
2018-10-04T01:57:08.886Z,85.60
2018-10-04T01:59:37.131Z,85.50
2018-10-04T02:02:05.431Z,85.40
2018-10-04T02:04:33.637Z,85.50
2018-10-04T02:07:01.967Z,85.50
2018-10-04T02:09:30.215Z,85.50
2018-10-04T02:11:58.461Z,85.60
2018-10-04T02:14:26.701Z,85.60
2018-10-04T02:16:54.937Z,85.60
2018-10-04T02:19:23.199Z,85.40
2018-10-04T02:21:51.451Z,85.60
2018-10-04T02:24:20.915Z,85.70
2018-10-04T02:26:49.156Z,85.80
2018-10-04T02:29:17.421Z,85.70
2018-10-04T02:31:45.678Z,85.80
2018-10-04T02:34:13.960Z,85.70
2018-10-04T02:36:42.193Z,85.60
2018-10-04T02:39:10.485Z,85.60
2018-10-04T02:41:39.507Z,85.60
2018-10-04T02:44:07.797Z,85.50
2018-10-04T02:46:36.186Z,85.70
2018-10-04T02:49:04.632Z,85.70
2018-10-04T02:51:33.959Z,85.80
2018-10-04T02:54:02.575Z,85.80
2018-10-04T02:56:36.266Z,85.90
2018-10-04T02:59:04.585Z,86.00
2018-10-04T03:01:32.926Z,86.10
2018-10-04T03:04:01.186Z,86.10
2018-10-04T03:06:29.415Z,86.10
2018-10-04T03:08:57.987Z,86.00
2018-10-04T03:11:26.268Z,86.10
2018-10-04T03:13:54.603Z,86.00
2018-10-04T03:16:22.861Z,86.00
2018-10-04T03:18:52.234Z,86.20
2018-10-04T03:21:20.513Z,86.50
2018-10-04T03:23:48.716Z,86.60
2018-10-04T03:26:18.103Z,86.70
2018-10-04T03:28:46.307Z,86.50
2018-10-04T03:31:14.545Z,87.30
2018-10-04T03:33:42.785Z,86.60
2018-10-04T03:36:11.076Z,86.60
2018-10-04T03:38:39.290Z,86.40
2018-10-04T03:41:07.536Z,86.30
2018-10-04T03:43:35.834Z,86.20
2018-10-04T03:46:05.069Z,86.20
2018-10-04T03:48:33.285Z,86.20
2018-10-04T03:51:02.961Z,86.30
2018-10-04T03:53:31.773Z,86.30
2018-10-04T03:56:00.126Z,86.30
2018-10-04T03:58:28.328Z,87.10
2018-10-04T04:00:56.779Z,86.30
2018-10-04T04:03:25.033Z,86.30
2018-10-04T04:05:53.315Z,86.20
2018-10-04T04:08:24.785Z,86.20
2018-10-04T04:10:53.259Z,86.30
2018-10-04T04:13:21.453Z,86.30
2018-10-04T04:15:49.793Z,86.30
2018-10-04T04:18:18.025Z,86.30
2018-10-04T04:20:46.267Z,86.30
2018-10-04T04:23:14.534Z,86.40
2018-10-04T04:25:53.559Z,86.40
2018-10-04T04:28:21.992Z,86.60
2018-10-04T04:30:50.418Z,86.60
2018-10-04T04:33:18.558Z,86.70
2018-10-04T04:35:46.833Z,86.70
2018-10-04T04:38:15.145Z,86.90
2018-10-04T04:40:43.395Z,86.90
2018-10-04T04:43:11.730Z,87.10
2018-10-04T04:45:40.320Z,87.10
2018-10-04T04:48:08.609Z,87.00
2018-10-04T04:50:37.889Z,87.00
2018-10-04T04:53:17.445Z,87.00
2018-10-04T04:55:45.752Z,86.90
2018-10-04T04:58:15.365Z,86.90
2018-10-04T05:00:44.764Z,86.90
2018-10-04T05:03:13.242Z,87.00
2018-10-04T05:05:41.453Z,87.20
2018-10-04T05:08:10.417Z,87.00
2018-10-04T05:10:42.588Z,86.90
2018-10-04T05:13:11.390Z,87.10
2018-10-04T05:15:39.647Z,87.10
2018-10-04T05:18:07.900Z,87.10
2018-10-04T05:20:36.171Z,87.10
2018-10-04T05:23:07.515Z,87.20
2018-10-04T05:25:35.816Z,87.30
2018-10-04T05:28:04.101Z,87.50
2018-10-04T05:30:35.763Z,87.50
2018-10-04T05:33:06.804Z,87.50
2018-10-04T05:35:38.300Z,87.60
2018-10-04T05:39:00.540Z,87.50
2018-10-04T05:41:30.589Z,87.70
2018-10-04T05:44:04.275Z,87.70
2018-10-04T05:46:34.401Z,87.90
2018-10-04T05:49:06.198Z,88.00
2018-10-04T05:51:41.657Z,87.90
2018-10-04T05:54:13.290Z,87.80
2018-10-04T05:56:42.463Z,88.00
2018-10-04T05:59:11.256Z,88.10
2018-10-04T06:01:45.873Z,88.10
2018-10-04T06:04:17.908Z,88.00
2018-10-04T06:06:48.401Z,88.00
2018-10-04T06:09:17.350Z,88.80
2018-10-04T06:11:45.834Z,88.10
2018-10-04T06:14:14.126Z,88.00
2018-10-04T06:16:43.850Z,88.10
2018-10-04T06:19:19.129Z,88.10
2018-10-04T06:21:48.966Z,88.10
2018-10-04T06:24:22.799Z,88.10
2018-10-04T06:26:51.326Z,88.10
2018-10-04T06:29:20.710Z,88.20
2018-10-04T06:31:49.499Z,88.10
2018-10-04T06:34:18.090Z,88.10
2018-10-04T06:36:48.717Z,88.10
2018-10-04T06:39:18.106Z,88.10
2018-10-04T06:41:47.553Z,88.00
2018-10-04T06:44:16.100Z,88.10
2018-10-04T06:46:45.426Z,88.20
2018-10-04T06:49:14.172Z,88.30
2018-10-04T06:51:42.707Z,88.30
2018-10-04T06:54:11.091Z,88.40
2018-10-04T06:56:39.525Z,88.50
2018-10-04T06:59:08.120Z,88.50
2018-10-04T07:01:37.707Z,88.50
2018-10-04T07:04:06.909Z,88.60
2018-10-04T07:06:37.453Z,88.60
2018-10-04T07:09:09.504Z,88.60
2018-10-04T07:11:39.410Z,88.70
2018-10-04T07:14:08.971Z,88.60
2018-10-04T07:16:37.608Z,88.70
2018-10-04T07:19:06.145Z,88.70
2018-10-04T07:21:35.766Z,88.80
2018-10-04T07:24:04.290Z,88.80
2018-10-04T07:26:33.258Z,88.80
2018-10-04T07:29:01.667Z,88.80
2018-10-04T07:31:30.906Z,88.80
2018-10-04T07:33:59.690Z,88.80
2018-10-04T07:36:29.386Z,88.90
2018-10-04T07:38:57.995Z,88.80
2018-10-04T07:41:32.662Z,88.70
2018-10-04T07:44:02.921Z,88.80
2018-10-04T07:46:31.619Z,88.70
2018-10-04T07:48:59.925Z,88.70
2018-10-04T07:51:28.449Z,88.80
2018-10-04T07:53:56.986Z,88.70
2018-10-04T07:56:25.556Z,88.80
2018-10-04T07:58:53.991Z,88.70
2018-10-04T08:01:31.169Z,88.90
2018-10-04T08:03:59.531Z,88.90
2018-10-04T08:06:28.451Z,88.80
2018-10-04T08:08:56.970Z,88.80
2018-10-04T08:11:25.349Z,88.70
2018-10-04T08:17:11.212Z,88.60
2018-10-04T08:19:54.562Z,88.60
2018-10-04T08:22:23.825Z,88.60
2018-10-04T08:24:57.683Z,88.50
2018-10-04T08:27:33.544Z,88.90
2018-10-04T08:30:04.027Z,88.50
2018-10-04T08:32:33.075Z,88.50
2018-10-04T08:35:02.277Z,88.50
2018-10-04T08:37:31.058Z,88.50
2018-10-04T08:40:00.403Z,88.50
2018-10-04T08:42:28.778Z,88.50
2018-10-04T08:44:57.883Z,88.50
2018-10-04T08:47:34.851Z,88.50
2018-10-04T08:50:11.681Z,88.50
2018-10-04T08:52:48.476Z,88.50
2018-10-04T08:55:30.490Z,88.40
2018-10-04T08:58:19.413Z,88.50
2018-10-04T09:01:09.330Z,88.40
2018-10-04T09:03:41.595Z,88.50
2018-10-04T09:06:11.431Z,87.40
2018-10-04T09:08:41.463Z,87.20
2018-10-04T09:11:10.023Z,87.20
2018-10-04T09:13:39.007Z,87.10
2018-10-04T09:16:09.718Z,87.00
2018-10-04T09:18:38.696Z,86.90
2018-10-04T09:21:09.206Z,86.90
2018-10-04T09:23:38.490Z,86.90
2018-10-04T09:26:07.057Z,86.70
2018-10-04T09:28:36.515Z,86.70
2018-10-04T09:31:10.326Z,86.70
2018-10-04T09:33:40.444Z,86.70
2018-10-04T09:36:10.329Z,86.60
2018-10-04T09:38:39.251Z,86.60
2018-10-04T09:41:07.604Z,86.60
2018-10-04T09:43:36.037Z,86.50
2018-10-04T09:46:05.881Z,86.60
2018-10-04T09:48:35.342Z,86.50
2018-10-04T09:51:09.388Z,86.40
2018-10-04T09:53:43.309Z,86.20
2018-10-04T09:56:17.192Z,86.10
2018-10-04T09:58:45.549Z,86.10
2018-10-04T10:01:20.308Z,86.00
2018-10-04T10:03:50.209Z,85.80
2018-10-04T10:06:22.247Z,85.80
2018-10-04T10:08:50.939Z,85.80
2018-10-04T10:11:20.676Z,85.70
2018-10-04T10:13:49.829Z,85.70
2018-10-04T10:16:20.206Z,85.70
2018-10-04T10:21:33.966Z,85.50
2018-10-04T10:24:05.223Z,85.60
2018-10-04T10:26:40.671Z,85.40
2018-10-04T10:29:09.581Z,85.40
2018-10-04T10:31:45.861Z,85.40
2018-10-04T10:34:23.987Z,85.30
2018-10-04T10:37:03.607Z,85.30
2018-10-04T10:39:32.324Z,85.20
2018-10-04T10:42:00.658Z,85.00
2018-10-04T10:44:40.937Z,85.10
2018-10-04T10:47:21.936Z,85.00
2018-10-04T10:53:23.380Z,84.80
2018-10-04T10:55:51.677Z,84.80
2018-10-04T10:58:19.960Z,84.80
2018-10-04T11:00:53.542Z,84.60
2018-10-04T11:03:22.151Z,84.60
2018-10-04T11:05:50.391Z,84.60
2018-10-04T11:08:19.189Z,85.30
2018-10-04T11:10:55.660Z,84.60
2018-10-04T11:13:31.676Z,84.50
2018-10-04T11:16:27.485Z,84.60
2018-10-04T11:18:57.791Z,84.60
2018-10-04T11:21:27.669Z,84.60
2018-10-04T11:23:58.518Z,84.40
2018-10-04T11:26:28.701Z,84.20
2018-10-04T11:28:58.993Z,84.20
2018-10-04T11:31:29.714Z,84.10
2018-10-04T11:34:00.748Z,84.10
2018-10-04T11:36:32.842Z,84.10
2018-10-04T11:39:06.904Z,84.00
2018-10-04T11:41:40.891Z,84.00
2018-10-04T11:44:21.302Z,84.00
2018-10-04T11:46:59.214Z,83.90
2018-10-04T11:49:35.760Z,83.90
2018-10-04T11:55:20.184Z,83.80
2018-10-04T11:57:52.070Z,83.70
2018-10-04T12:00:27.362Z,83.60
2018-10-04T12:03:33.185Z,83.50
2018-10-04T12:07:11.328Z,83.60
2018-10-04T12:10:28.951Z,83.50
2018-10-04T12:37:11.255Z,83.30
2018-10-04T12:39:43.091Z,82.60
2018-10-04T12:42:15.748Z,82.40
2018-10-04T12:44:45.215Z,82.40
2018-10-04T12:47:27.358Z,82.40
2018-10-04T12:49:56.745Z,82.40
2018-10-04T12:52:38.597Z,82.50
2018-10-04T12:55:11.275Z,82.40
2018-10-04T12:57:42.823Z,82.40
2018-10-04T13:00:23.089Z,82.20
2018-10-04T13:03:06.661Z,82.30
2018-10-04T13:05:41.682Z,82.20
2018-10-04T13:08:16.784Z,82.20
2018-10-04T13:10:59.257Z,82.00
2018-10-04T14:04:13.209Z,80.30
2018-10-04T14:18:19.687Z,79.80
2018-10-04T14:20:48.886Z,79.80
2018-10-04T14:23:26.998Z,79.70
2018-10-04T14:25:56.109Z,79.50
2018-10-04T14:28:24.530Z,79.60
2018-10-04T14:39:36.290Z,79.50
2018-10-04T14:42:05.010Z,79.70
2018-10-04T14:44:33.465Z,79.60
2018-10-04T14:47:02.976Z,79.70
2018-10-04T14:49:33.474Z,79.60
2018-10-04T14:52:03.289Z,79.60
2018-10-04T14:54:32.500Z,79.80
2018-10-04T15:02:51.454Z,80.30
2018-10-04T15:05:49.562Z,80.30
2018-10-04T15:08:24.055Z,80.30
2018-10-04T15:11:06.851Z,80.40
2018-10-04T15:14:08.710Z,80.40
2018-10-04T15:16:44.925Z,80.40
2018-10-04T15:22:21.850Z,80.70
2018-10-04T15:25:00.819Z,80.60
2018-10-04T15:27:53.322Z,80.80
2018-10-04T15:30:44.858Z,80.90
2018-10-04T15:33:32.640Z,80.90
2018-10-04T15:36:02.985Z,81.00
2018-10-04T15:38:36.259Z,81.00
2018-10-04T15:41:17.143Z,80.90
2018-10-04T15:50:38.418Z,81.10
2018-10-04T15:53:16.717Z,81.30
2018-10-04T15:56:01.590Z,81.20
2018-10-04T15:58:32.375Z,81.20
2018-10-04T16:01:02.769Z,81.30
2018-10-04T16:03:32.491Z,81.30
2018-10-04T16:06:02.566Z,81.40
2018-10-04T16:08:30.962Z,81.40
2018-10-04T16:10:59.587Z,81.50
2018-10-04T16:13:28.988Z,81.50
2018-10-04T16:16:03.483Z,82.20
2018-10-04T16:18:31.982Z,81.60
2018-10-04T16:21:17.869Z,81.70
2018-10-04T16:23:46.256Z,81.70
2018-10-04T16:26:19.019Z,81.80
2018-10-04T16:28:56.989Z,81.90
2018-10-04T16:31:29.233Z,81.80
2018-10-04T16:34:11.876Z,81.70
2018-10-04T16:36:55.194Z,81.80
2018-10-04T16:39:41.675Z,81.90
2018-10-04T16:42:32.094Z,81.80
2018-10-04T16:45:06.782Z,82.00
2018-10-04T16:47:40.978Z,82.00
2018-10-04T16:50:11.964Z,81.80
2018-10-04T16:53:00.211Z,81.90
2018-10-04T16:58:39.365Z,81.90
2018-10-04T17:04:20.900Z,81.90
2018-10-04T17:07:01.717Z,81.90
2018-10-04T17:13:12.119Z,82.00
2018-10-04T17:15:46.365Z,82.10
2018-10-04T17:18:18.396Z,82.10
2018-10-04T17:20:47.951Z,82.20
2018-10-04T17:23:16.415Z,82.30
2018-10-04T17:25:44.726Z,82.40
2018-10-04T17:28:13.152Z,82.40
2018-10-04T17:30:48.230Z,82.40
2018-10-04T17:33:16.617Z,82.40
2018-10-04T17:35:45.059Z,82.40
2018-10-04T17:38:13.424Z,82.60
2018-10-04T17:40:42.370Z,82.60
2018-10-04T17:43:11.817Z,82.70
2018-10-04T17:45:40.074Z,82.80
2018-10-04T17:48:08.281Z,82.80
2018-10-04T17:50:56.566Z,82.30
2018-10-04T17:53:24.885Z,82.90
2018-10-04T17:55:53.238Z,83.00
2018-10-04T17:58:21.561Z,83.20
2018-10-04T18:00:49.949Z,83.30
2018-10-04T18:03:24.325Z,83.30
2018-10-04T18:05:54.654Z,83.30
2018-10-04T18:08:22.904Z,83.30
2018-10-04T18:10:51.389Z,83.30
2018-10-04T18:13:20.730Z,83.40
2018-10-04T18:15:49.029Z,83.30
2018-10-04T18:18:17.401Z,83.30
2018-10-04T18:20:46.773Z,83.30
2018-10-04T18:23:17.482Z,83.40
2018-10-04T18:25:45.786Z,84.20
2018-10-04T18:28:14.055Z,83.50
2018-10-04T18:30:43.772Z,83.50
2018-10-04T18:33:13.074Z,83.60
2018-10-04T18:35:41.379Z,83.70
2018-10-04T18:38:09.706Z,83.80
2018-10-04T18:40:37.985Z,83.80
2018-10-04T18:43:06.330Z,83.80
2018-10-04T18:45:35.485Z,83.80
2018-10-04T18:48:03.746Z,83.90
2018-10-04T18:50:32.007Z,83.90
2018-10-04T18:53:00.324Z,84.00
2018-10-04T18:55:28.622Z,84.00
2018-10-04T18:57:58.938Z,84.10
2018-10-04T19:00:27.256Z,84.10
2018-10-04T19:02:55.568Z,84.10
2018-10-04T19:05:23.908Z,84.20
2018-10-04T19:07:52.189Z,84.30
2018-10-04T19:10:21.781Z,84.20
2018-10-04T19:12:50.112Z,84.30
2018-10-04T19:15:18.335Z,84.20
2018-10-04T19:17:46.735Z,84.90
2018-10-04T19:20:20.187Z,84.40
2018-10-04T19:22:48.444Z,84.40
2018-10-04T19:25:18.052Z,84.40
2018-10-04T19:27:46.301Z,84.50
2018-10-04T19:30:14.636Z,84.50
2018-10-04T19:32:42.986Z,84.60
2018-10-04T19:35:11.253Z,84.60
2018-10-04T19:37:39.548Z,84.60
2018-10-04T19:40:08.889Z,84.60
2018-10-04T19:42:37.202Z,84.60
2018-10-04T19:45:05.617Z,84.60
2018-10-04T19:47:33.969Z,84.70
2018-10-04T19:50:02.227Z,84.80
2018-10-04T19:52:31.981Z,84.70
2018-10-04T19:55:00.246Z,84.70
2018-10-04T19:57:28.559Z,84.80
2018-10-04T19:59:56.869Z,84.70
2018-10-04T20:02:25.234Z,84.80
2018-10-04T20:04:53.513Z,84.80
2018-10-04T20:07:21.801Z,84.90
2018-10-04T20:09:50.192Z,84.80
2018-10-04T20:12:18.630Z,84.90
2018-10-04T20:14:46.870Z,84.80
2018-10-04T20:17:15.814Z,84.90
2018-10-04T20:19:44.085Z,85.00
2018-10-04T20:22:14.791Z,86.00
2018-10-04T20:24:43.177Z,86.10
2018-10-04T20:27:11.706Z,86.10
2018-10-04T20:29:40.326Z,86.20
2018-10-04T20:32:09.497Z,86.10
2018-10-04T20:34:37.922Z,86.10
2018-10-04T20:37:08.230Z,86.20
2018-10-04T20:39:41.305Z,86.20
2018-10-04T20:42:09.661Z,86.20
2018-10-04T20:44:37.927Z,86.20
2018-10-04T20:47:06.215Z,86.30
2018-10-04T20:49:34.686Z,86.30
2018-10-04T20:52:02.987Z,86.20
2018-10-04T20:54:31.280Z,86.30
2018-10-04T20:56:59.549Z,86.40
2018-10-04T20:59:27.901Z,86.40
2018-10-04T21:01:56.159Z,86.40
2018-10-04T21:04:24.507Z,86.40
2018-10-04T21:06:52.757Z,86.50
2018-10-04T21:09:21.247Z,86.40
2018-10-04T21:11:49.997Z,86.50
2018-10-04T21:14:18.321Z,86.50
2018-10-04T21:16:46.557Z,86.50
2018-10-04T21:19:14.825Z,86.60
2018-10-04T21:21:43.172Z,86.50
2018-10-04T21:24:11.418Z,86.50
2018-10-04T21:26:39.744Z,86.60
2018-10-04T21:29:07.986Z,86.60
2018-10-04T21:31:36.249Z,86.70
2018-10-04T21:34:04.501Z,86.60
2018-10-04T21:36:32.829Z,86.60
2018-10-04T21:39:01.074Z,86.50
2018-10-04T21:41:29.358Z,86.50
2018-10-04T21:43:57.598Z,86.50
2018-10-04T21:46:25.954Z,86.60
2018-10-04T21:48:54.206Z,86.70
2018-10-04T21:51:22.465Z,86.70
2018-10-04T21:53:50.964Z,86.70
2018-10-04T21:56:19.213Z,86.80
2018-10-04T21:58:47.486Z,86.80
2018-10-04T22:01:19.831Z,86.70
2018-10-04T22:03:48.296Z,87.10
2018-10-04T22:06:16.645Z,86.70
2018-10-04T22:08:44.982Z,86.70
2018-10-04T22:11:13.340Z,86.60
2018-10-04T22:13:41.598Z,86.80
2018-10-04T22:16:09.842Z,86.70
2018-10-04T22:18:38.185Z,86.80
2018-10-04T22:21:06.685Z,86.90
2018-10-04T22:23:35.937Z,86.80
2018-10-04T22:26:04.162Z,86.90
2018-10-04T22:28:32.425Z,86.90
2018-10-04T22:31:00.713Z,86.90
2018-10-04T22:33:28.934Z,86.90
2018-10-04T22:35:57.214Z,86.90
2018-10-04T22:38:25.663Z,87.60
2018-10-04T22:40:54.077Z,86.90
2018-10-04T22:43:22.353Z,87.00
2018-10-04T22:45:50.648Z,87.00
2018-10-04T22:48:18.946Z,86.90
2018-10-04T22:50:49.732Z,87.00
2018-10-04T22:53:18.128Z,87.00
2018-10-04T22:55:46.415Z,87.00
2018-10-04T22:58:14.737Z,86.80
2018-10-04T23:00:42.917Z,86.80
2018-10-04T23:03:11.261Z,86.80
2018-10-04T23:05:39.468Z,86.90
2018-10-04T23:08:07.763Z,87.00
2018-10-04T23:10:37.185Z,87.10
2018-10-04T23:13:05.403Z,87.10
2018-10-04T23:15:33.636Z,87.10
2018-10-04T23:18:01.863Z,87.10
2018-10-04T23:20:30.161Z,87.10
2018-10-04T23:22:58.398Z,87.10
2018-10-04T23:25:26.759Z,87.90
2018-10-04T23:27:54.969Z,87.20
2018-10-04T23:30:23.198Z,88.00
2018-10-04T23:32:51.473Z,87.40
2018-10-04T23:35:24.596Z,87.30
2018-10-04T23:37:52.892Z,87.20
2018-10-04T23:40:21.137Z,87.20
2018-10-04T23:42:49.409Z,87.20
2018-10-04T23:45:21.876Z,87.20
2018-10-04T23:47:50.348Z,87.40
2018-10-04T23:50:18.663Z,87.60
2018-10-04T23:52:46.898Z,87.90
2018-10-04T23:55:15.214Z,87.90
2018-10-04T23:57:43.504Z,87.90
